sensor_id;sensor_type;location;lat;lon;timestamp;temperature;humidity
16253;DHT22;8234;41.480;2.306;2022-11-27T00:02:27;10.60;99.90
16253;DHT22;8234;41.480;2.306;2022-11-27T00:12:33;10.70;99.90
16253;DHT22;8234;41.480;2.306;2022-11-27T00:22:37;10.80;99.90
16253;DHT22;8234;41.480;2.306;2022-11-27T00:32:42;10.60;99.90
16253;DHT22;8234;41.480;2.306;2022-11-27T00:42:47;10.50;99.90
16253;DHT22;8234;41.480;2.306;2022-11-27T00:53:01;10.60;99.90
16253;DHT22;8234;41.480;2.306;2022-11-27T01:03:07;10.70;99.90
16253;DHT22;8234;41.480;2.306;2022-11-27T01:13:12;10.70;99.90
16253;DHT22;8234;41.480;2.306;2022-11-27T01:23:16;10.90;99.90
16253;DHT22;8234;41.480;2.306;2022-11-27T01:33:21;10.80;99.90
16253;DHT22;8234;41.480;2.306;2022-11-27T01:43:36;10.60;99.90
16253;DHT22;8234;41.480;2.306;2022-11-27T01:53:42;10.50;99.90
16253;DHT22;8234;41.480;2.306;2022-11-27T02:03:49;10.50;99.90
16253;DHT22;8234;41.480;2.306;2022-11-27T02:13:58;10.50;99.90
16253;DHT22;8234;41.480;2.306;2022-11-27T02:24:20;10.60;99.90
16253;DHT22;8234;41.480;2.306;2022-11-27T02:34:34;10.50;99.90
16253;DHT22;8234;41.480;2.306;2022-11-27T02:44:43;10.70;99.90
16253;DHT22;8234;41.480;2.306;2022-11-27T02:54:51;10.50;99.90
16253;DHT22;8234;41.480;2.306;2022-11-27T03:04:58;10.50;99.90
16253;DHT22;8234;41.480;2.306;2022-11-27T03:15:07;10.50;99.90
16253;DHT22;8234;41.480;2.306;2022-11-27T03:25:11;10.60;99.90
16253;DHT22;8234;41.480;2.306;2022-11-27T03:35:21;10.60;99.90
16253;DHT22;8234;41.480;2.306;2022-11-27T03:45:29;10.50;99.90
16253;DHT22;8234;41.480;2.306;2022-11-27T03:55:41;10.50;99.90
16253;DHT22;8234;41.480;2.306;2022-11-27T04:05:49;10.50;99.90
16253;DHT22;8234;41.480;2.306;2022-11-27T04:15:54;10.30;99.90
16253;DHT22;8234;41.480;2.306;2022-11-27T04:25:58;10.40;99.90
16253;DHT22;8234;41.480;2.306;2022-11-27T04:36:05;10.20;99.90
16253;DHT22;8234;41.480;2.306;2022-11-27T04:46:09;10.00;99.90
16253;DHT22;8234;41.480;2.306;2022-11-27T04:56:14;10.10;99.90
16253;DHT22;8234;41.480;2.306;2022-11-27T05:06:18;10.10;99.90
16253;DHT22;8234;41.480;2.306;2022-11-27T05:16:25;10.10;99.90
16253;DHT22;8234;41.480;2.306;2022-11-27T05:26:29;10.10;99.90
16253;DHT22;8234;41.480;2.306;2022-11-27T05:36:35;10.20;99.90
16253;DHT22;8234;41.480;2.306;2022-11-27T05:46:39;10.20;99.90
16253;DHT22;8234;41.480;2.306;2022-11-27T05:56:46;10.10;99.90
16253;DHT22;8234;41.480;2.306;2022-11-27T06:06:50;10.10;99.90
16253;DHT22;8234;41.480;2.306;2022-11-27T06:16:55;10.10;99.90
16253;DHT22;8234;41.480;2.306;2022-11-27T06:27:04;9.90;99.90
16253;DHT22;8234;41.480;2.306;2022-11-27T06:37:11;10.10;99.90
16253;DHT22;8234;41.480;2.306;2022-11-27T06:47:15;10.10;99.90
16253;DHT22;8234;41.480;2.306;2022-11-27T06:57:20;9.70;99.90
16253;DHT22;8234;41.480;2.306;2022-11-27T07:07:24;9.60;99.90
16253;DHT22;8234;41.480;2.306;2022-11-27T07:17:29;9.60;99.90
16253;DHT22;8234;41.480;2.306;2022-11-27T07:27:33;9.70;99.90
16253;DHT22;8234;41.480;2.306;2022-11-27T07:37:39;9.80;99.90
16253;DHT22;8234;41.480;2.306;2022-11-27T07:47:42;10.00;99.90
16253;DHT22;8234;41.480;2.306;2022-11-27T07:57:47;10.30;99.90
16253;DHT22;8234;41.480;2.306;2022-11-27T08:07:52;10.60;99.90
16253;DHT22;8234;41.480;2.306;2022-11-27T08:17:59;10.80;99.90
16253;DHT22;8234;41.480;2.306;2022-11-27T08:28:03;11.10;99.90
16253;DHT22;8234;41.480;2.306;2022-11-27T08:38:09;11.60;99.90
16253;DHT22;8234;41.480;2.306;2022-11-27T08:48:13;12.10;99.90
16253;DHT22;8234;41.480;2.306;2022-11-27T08:58:18;13.00;99.90
16253;DHT22;8234;41.480;2.306;2022-11-27T09:08:24;13.30;99.90
16253;DHT22;8234;41.480;2.306;2022-11-27T09:18:31;13.20;99.90
16253;DHT22;8234;41.480;2.306;2022-11-27T09:28:36;13.20;99.90
16253;DHT22;8234;41.480;2.306;2022-11-27T09:38:42;13.90;99.90
16253;DHT22;8234;41.480;2.306;2022-11-27T09:48:48;14.60;99.90
16253;DHT22;8234;41.480;2.306;2022-11-27T09:58:57;15.70;99.90
16253;DHT22;8234;41.480;2.306;2022-11-27T10:09:10;16.70;99.90
16253;DHT22;8234;41.480;2.306;2022-11-27T10:19:25;16.40;99.90
16253;DHT22;8234;41.480;2.306;2022-11-27T10:29:35;16.80;99.90
16253;DHT22;8234;41.480;2.306;2022-11-27T10:39:47;17.20;99.90
16253;DHT22;8234;41.480;2.306;2022-11-27T10:49:52;17.60;99.90
16253;DHT22;8234;41.480;2.306;2022-11-27T11:00:03;18.20;99.90
16253;DHT22;8234;41.480;2.306;2022-11-27T11:10:24;18.00;99.90
16253;DHT22;8234;41.480;2.306;2022-11-27T11:20:30;18.60;99.90
16253;DHT22;8234;41.480;2.306;2022-11-27T11:30:34;18.20;99.90
16253;DHT22;8234;41.480;2.306;2022-11-27T11:41:01;18.80;99.90
16253;DHT22;8234;41.480;2.306;2022-11-27T11:51:10;18.90;99.90
16253;DHT22;8234;41.480;2.306;2022-11-27T12:01:28;18.90;99.90
16253;DHT22;8234;41.480;2.306;2022-11-27T12:11:43;18.90;99.90
16253;DHT22;8234;41.480;2.306;2022-11-27T12:21:58;18.90;99.90
16253;DHT22;8234;41.480;2.306;2022-11-27T12:32:27;19.20;99.90
16253;DHT22;8234;41.480;2.306;2022-11-27T12:42:37;18.70;99.90
16253;DHT22;8234;41.480;2.306;2022-11-27T12:52:44;18.20;99.90
16253;DHT22;8234;41.480;2.306;2022-11-27T13:02:59;18.10;99.90
16253;DHT22;8234;41.480;2.306;2022-11-27T13:13:07;18.40;99.90
16253;DHT22;8234;41.480;2.306;2022-11-27T13:23:14;18.00;99.90
16253;DHT22;8234;41.480;2.306;2022-11-27T13:33:31;17.90;99.90
16253;DHT22;8234;41.480;2.306;2022-11-27T13:43:42;18.10;99.90
16253;DHT22;8234;41.480;2.306;2022-11-27T13:53:46;18.10;99.90
16253;DHT22;8234;41.480;2.306;2022-11-27T17:56:22;13.60;99.90
16253;DHT22;8234;41.480;2.306;2022-11-27T18:06:26;13.70;99.90
16253;DHT22;8234;41.480;2.306;2022-11-27T18:16:33;13.70;99.90
16253;DHT22;8234;41.480;2.306;2022-11-27T18:26:37;13.40;99.90
16253;DHT22;8234;41.480;2.306;2022-11-27T18:37:03;13.30;99.90
16253;DHT22;8234;41.480;2.306;2022-11-27T18:47:06;13.20;99.90
16253;DHT22;8234;41.480;2.306;2022-11-27T18:57:15;13.20;99.90
16253;DHT22;8234;41.480;2.306;2022-11-27T19:07:20;13.00;99.90
16253;DHT22;8234;41.480;2.306;2022-11-27T19:17:28;12.80;99.90
16253;DHT22;8234;41.480;2.306;2022-11-27T19:27:33;12.80;99.90
16253;DHT22;8234;41.480;2.306;2022-11-27T19:37:38;12.80;99.90
16253;DHT22;8234;41.480;2.306;2022-11-27T19:47:42;12.80;99.90
16253;DHT22;8234;41.480;2.306;2022-11-27T19:57:48;13.20;99.90
16253;DHT22;8234;41.480;2.306;2022-11-27T20:07:52;13.40;99.90
16253;DHT22;8234;41.480;2.306;2022-11-27T20:17:57;13.60;99.90
16253;DHT22;8234;41.480;2.306;2022-11-27T20:28:01;13.70;99.90
16253;DHT22;8234;41.480;2.306;2022-11-27T20:38:06;14.00;99.90
16253;DHT22;8234;41.480;2.306;2022-11-27T20:48:10;13.80;99.90
16253;DHT22;8234;41.480;2.306;2022-11-27T20:58:15;13.50;99.90
16253;DHT22;8234;41.480;2.306;2022-11-27T21:08:19;13.20;99.90
16253;DHT22;8234;41.480;2.306;2022-11-27T21:18:24;12.90;99.90
16253;DHT22;8234;41.480;2.306;2022-11-27T21:28:29;13.10;99.90
16253;DHT22;8234;41.480;2.306;2022-11-27T21:38:34;12.90;99.90
16253;DHT22;8234;41.480;2.306;2022-11-27T21:48:39;12.70;99.90
16253;DHT22;8234;41.480;2.306;2022-11-27T21:58:44;12.40;99.90
16253;DHT22;8234;41.480;2.306;2022-11-27T22:08:49;12.30;99.90
16253;DHT22;8234;41.480;2.306;2022-11-27T22:18:56;12.30;99.90
16253;DHT22;8234;41.480;2.306;2022-11-27T22:29:00;12.40;99.90
16253;DHT22;8234;41.480;2.306;2022-11-27T22:39:06;12.50;99.90
16253;DHT22;8234;41.480;2.306;2022-11-27T22:49:12;12.50;99.90
16253;DHT22;8234;41.480;2.306;2022-11-27T22:59:17;12.70;99.90
16253;DHT22;8234;41.480;2.306;2022-11-27T23:09:36;12.40;99.90
16253;DHT22;8234;41.480;2.306;2022-11-27T23:19:42;12.30;99.90
16253;DHT22;8234;41.480;2.306;2022-11-27T23:29:46;12.40;99.90
16253;DHT22;8234;41.480;2.306;2022-11-27T23:39:51;13.50;99.90
16253;DHT22;8234;41.480;2.306;2022-11-27T23:49:55;13.90;99.90
